sensor_id;sensor_type;location;lat;lon;timestamp;temperature;humidity
12512;DHT22;6321;53.798;10.382;2022-07-25T00:02:17;17.90;99.90
12512;DHT22;6321;53.798;10.382;2022-07-25T00:04:42;17.90;99.90
12512;DHT22;6321;53.798;10.382;2022-07-25T00:07:08;17.70;99.90
12512;DHT22;6321;53.798;10.382;2022-07-25T00:09:33;17.70;99.90
12512;DHT22;6321;53.798;10.382;2022-07-25T00:11:59;17.70;99.90
12512;DHT22;6321;53.798;10.382;2022-07-25T00:14:25;17.60;99.90
12512;DHT22;6321;53.798;10.382;2022-07-25T00:16:50;17.70;99.90
12512;DHT22;6321;53.798;10.382;2022-07-25T00:19:16;17.70;99.90
12512;DHT22;6321;53.798;10.382;2022-07-25T00:21:42;17.50;99.90
12512;DHT22;6321;53.798;10.382;2022-07-25T00:24:07;17.40;99.90
12512;DHT22;6321;53.798;10.382;2022-07-25T00:26:33;17.40;99.90
12512;DHT22;6321;53.798;10.382;2022-07-25T00:28:59;17.30;99.90
12512;DHT22;6321;53.798;10.382;2022-07-25T00:31:25;17.20;99.90
12512;DHT22;6321;53.798;10.382;2022-07-25T00:33:50;17.40;99.90
12512;DHT22;6321;53.798;10.382;2022-07-25T00:36:16;17.40;99.90
12512;DHT22;6321;53.798;10.382;2022-07-25T00:38:41;17.30;99.90
12512;DHT22;6321;53.798;10.382;2022-07-25T00:41:07;17.40;99.90
12512;DHT22;6321;53.798;10.382;2022-07-25T00:43:33;17.30;99.90
12512;DHT22;6321;53.798;10.382;2022-07-25T00:45:58;17.40;99.90
12512;DHT22;6321;53.798;10.382;2022-07-25T00:48:28;17.40;99.90
12512;DHT22;6321;53.798;10.382;2022-07-25T00:50:57;17.50;99.90
12512;DHT22;6321;53.798;10.382;2022-07-25T00:53:23;17.20;99.90
12512;DHT22;6321;53.798;10.382;2022-07-25T00:55:50;17.30;99.90
12512;DHT22;6321;53.798;10.382;2022-07-25T00:58:15;17.00;99.90
12512;DHT22;6321;53.798;10.382;2022-07-25T01:00:43;17.20;99.90
12512;DHT22;6321;53.798;10.382;2022-07-25T01:03:08;17.10;99.90
12512;DHT22;6321;53.798;10.382;2022-07-25T01:05:34;17.20;99.90
12512;DHT22;6321;53.798;10.382;2022-07-25T01:07:59;17.00;99.90
12512;DHT22;6321;53.798;10.382;2022-07-25T01:10:26;17.10;99.90
12512;DHT22;6321;53.798;10.382;2022-07-25T01:12:53;17.10;99.90
12512;DHT22;6321;53.798;10.382;2022-07-25T01:15:20;17.10;99.90
12512;DHT22;6321;53.798;10.382;2022-07-25T01:17:47;17.00;99.90
12512;DHT22;6321;53.798;10.382;2022-07-25T01:20:21;16.80;99.90
12512;DHT22;6321;53.798;10.382;2022-07-25T01:22:47;17.10;99.90
12512;DHT22;6321;53.798;10.382;2022-07-25T01:25:13;17.00;99.90
12512;DHT22;6321;53.798;10.382;2022-07-25T01:27:40;17.00;99.90
12512;DHT22;6321;53.798;10.382;2022-07-25T01:30:08;17.00;99.90
12512;DHT22;6321;53.798;10.382;2022-07-25T01:32:34;17.00;99.90
12512;DHT22;6321;53.798;10.382;2022-07-25T01:35:00;17.00;99.90
12512;DHT22;6321;53.798;10.382;2022-07-25T01:37:26;16.80;99.90
12512;DHT22;6321;53.798;10.382;2022-07-25T01:39:52;16.70;99.90
12512;DHT22;6321;53.798;10.382;2022-07-25T01:42:18;16.90;99.90
12512;DHT22;6321;53.798;10.382;2022-07-25T01:44:43;16.90;99.90
12512;DHT22;6321;53.798;10.382;2022-07-25T01:47:09;16.90;99.90
12512;DHT22;6321;53.798;10.382;2022-07-25T01:49:34;16.90;99.90
12512;DHT22;6321;53.798;10.382;2022-07-25T01:52:00;16.90;99.90
12512;DHT22;6321;53.798;10.382;2022-07-25T01:54:25;17.00;99.90
12512;DHT22;6321;53.798;10.382;2022-07-25T01:56:51;16.80;99.90
12512;DHT22;6321;53.798;10.382;2022-07-25T01:59:16;16.80;99.90
12512;DHT22;6321;53.798;10.382;2022-07-25T02:01:43;16.90;99.90
12512;DHT22;6321;53.798;10.382;2022-07-25T02:04:08;16.90;99.90
12512;DHT22;6321;53.798;10.382;2022-07-25T02:06:34;16.80;99.90
12512;DHT22;6321;53.798;10.382;2022-07-25T02:09:00;16.80;99.90
12512;DHT22;6321;53.798;10.382;2022-07-25T02:11:26;16.80;99.90
12512;DHT22;6321;53.798;10.382;2022-07-25T02:13:51;16.80;99.90
12512;DHT22;6321;53.798;10.382;2022-07-25T02:16:17;16.80;99.90
12512;DHT22;6321;53.798;10.382;2022-07-25T02:18:42;16.70;99.90
12512;DHT22;6321;53.798;10.382;2022-07-25T02:21:08;17.00;99.90
12512;DHT22;6321;53.798;10.382;2022-07-25T02:23:35;16.80;99.90
12512;DHT22;6321;53.798;10.382;2022-07-25T02:26:01;16.80;99.90
12512;DHT22;6321;53.798;10.382;2022-07-25T02:28:26;16.70;99.90
12512;DHT22;6321;53.798;10.382;2022-07-25T02:30:52;16.70;99.90
12512;DHT22;6321;53.798;10.382;2022-07-25T02:33:17;16.60;99.90
12512;DHT22;6321;53.798;10.382;2022-07-25T02:35:43;16.70;99.90
12512;DHT22;6321;53.798;10.382;2022-07-25T02:38:08;16.70;99.90
12512;DHT22;6321;53.798;10.382;2022-07-25T02:40:34;16.60;99.90
12512;DHT22;6321;53.798;10.382;2022-07-25T02:42:59;16.70;99.90
12512;DHT22;6321;53.798;10.382;2022-07-25T02:45:25;16.80;99.90
12512;DHT22;6321;53.798;10.382;2022-07-25T02:47:50;16.60;99.90
12512;DHT22;6321;53.798;10.382;2022-07-25T02:50:16;16.70;99.90
12512;DHT22;6321;53.798;10.382;2022-07-25T02:52:42;16.70;99.90
12512;DHT22;6321;53.798;10.382;2022-07-25T02:55:08;16.60;99.90
12512;DHT22;6321;53.798;10.382;2022-07-25T02:57:34;16.60;99.90
12512;DHT22;6321;53.798;10.382;2022-07-25T02:59:59;16.50;99.90
12512;DHT22;6321;53.798;10.382;2022-07-25T03:02:25;16.50;99.90
12512;DHT22;6321;53.798;10.382;2022-07-25T03:04:50;16.50;99.90
12512;DHT22;6321;53.798;10.382;2022-07-25T03:07:16;16.50;99.90
12512;DHT22;6321;53.798;10.382;2022-07-25T03:09:42;16.40;99.90
12512;DHT22;6321;53.798;10.382;2022-07-25T03:12:07;16.60;99.90
12512;DHT22;6321;53.798;10.382;2022-07-25T03:14:33;16.60;99.90
12512;DHT22;6321;53.798;10.382;2022-07-25T03:16:58;16.50;99.90
12512;DHT22;6321;53.798;10.382;2022-07-25T03:19:24;16.50;99.90
12512;DHT22;6321;53.798;10.382;2022-07-25T03:21:49;16.50;99.90
12512;DHT22;6321;53.798;10.382;2022-07-25T03:24:15;16.50;99.90
12512;DHT22;6321;53.798;10.382;2022-07-25T03:26:40;16.70;99.90
12512;DHT22;6321;53.798;10.382;2022-07-25T03:29:06;16.80;99.90
12512;DHT22;6321;53.798;10.382;2022-07-25T03:31:31;17.10;99.90
12512;DHT22;6321;53.798;10.382;2022-07-25T03:33:57;17.30;99.90
12512;DHT22;6321;53.798;10.382;2022-07-25T03:36:22;17.50;99.90
12512;DHT22;6321;53.798;10.382;2022-07-25T03:38:48;17.60;99.90
12512;DHT22;6321;53.798;10.382;2022-07-25T03:41:13;17.70;99.90
12512;DHT22;6321;53.798;10.382;2022-07-25T03:43:39;17.90;99.90
12512;DHT22;6321;53.798;10.382;2022-07-25T03:46:04;17.80;99.90
12512;DHT22;6321;53.798;10.382;2022-07-25T03:48:30;18.00;99.90
12512;DHT22;6321;53.798;10.382;2022-07-25T03:50:56;18.00;99.90
12512;DHT22;6321;53.798;10.382;2022-07-25T03:53:21;18.00;99.90
12512;DHT22;6321;53.798;10.382;2022-07-25T03:55:47;18.10;99.90
12512;DHT22;6321;53.798;10.382;2022-07-25T03:58:13;18.10;99.90
12512;DHT22;6321;53.798;10.382;2022-07-25T04:00:38;18.00;99.90
12512;DHT22;6321;53.798;10.382;2022-07-25T04:03:04;18.20;99.90
12512;DHT22;6321;53.798;10.382;2022-07-25T04:05:29;18.30;99.90
12512;DHT22;6321;53.798;10.382;2022-07-25T04:07:55;18.40;99.90
12512;DHT22;6321;53.798;10.382;2022-07-25T04:10:21;18.40;99.90
12512;DHT22;6321;53.798;10.382;2022-07-25T04:12:47;18.60;99.90
12512;DHT22;6321;53.798;10.382;2022-07-25T04:15:12;18.70;99.90
12512;DHT22;6321;53.798;10.382;2022-07-25T04:17:38;18.80;99.90
12512;DHT22;6321;53.798;10.382;2022-07-25T04:20:04;18.80;99.90
12512;DHT22;6321;53.798;10.382;2022-07-25T04:22:30;18.90;99.90
12512;DHT22;6321;53.798;10.382;2022-07-25T04:24:55;19.10;99.90
12512;DHT22;6321;53.798;10.382;2022-07-25T04:27:21;19.20;99.90
12512;DHT22;6321;53.798;10.382;2022-07-25T04:29:47;19.30;99.90
12512;DHT22;6321;53.798;10.382;2022-07-25T04:32:12;19.40;99.90
12512;DHT22;6321;53.798;10.382;2022-07-25T04:34:39;19.40;99.90
12512;DHT22;6321;53.798;10.382;2022-07-25T04:37:04;19.60;99.90
12512;DHT22;6321;53.798;10.382;2022-07-25T04:39:30;19.60;99.90
12512;DHT22;6321;53.798;10.382;2022-07-25T04:41:55;19.60;99.90
12512;DHT22;6321;53.798;10.382;2022-07-25T04:44:21;19.80;99.90
12512;DHT22;6321;53.798;10.382;2022-07-25T04:46:46;20.00;99.90
12512;DHT22;6321;53.798;10.382;2022-07-25T04:49:12;20.00;99.90
12512;DHT22;6321;53.798;10.382;2022-07-25T04:51:38;20.00;99.90
12512;DHT22;6321;53.798;10.382;2022-07-25T04:54:03;20.20;99.90
12512;DHT22;6321;53.798;10.382;2022-07-25T04:56:29;20.40;99.90
12512;DHT22;6321;53.798;10.382;2022-07-25T04:58:54;20.40;99.90
12512;DHT22;6321;53.798;10.382;2022-07-25T05:01:21;20.60;99.90
12512;DHT22;6321;53.798;10.382;2022-07-25T05:03:47;20.70;99.90
12512;DHT22;6321;53.798;10.382;2022-07-25T05:06:12;20.90;99.90
12512;DHT22;6321;53.798;10.382;2022-07-25T05:08:38;21.00;99.90
12512;DHT22;6321;53.798;10.382;2022-07-25T05:11:03;21.10;99.90
12512;DHT22;6321;53.798;10.382;2022-07-25T05:13:29;21.30;99.90
12512;DHT22;6321;53.798;10.382;2022-07-25T05:15:54;21.20;99.90
12512;DHT22;6321;53.798;10.382;2022-07-25T05:18:20;21.40;99.90
12512;DHT22;6321;53.798;10.382;2022-07-25T05:20:46;21.10;99.90
12512;DHT22;6321;53.798;10.382;2022-07-25T05:23:11;21.20;99.90
12512;DHT22;6321;53.798;10.382;2022-07-25T05:25:37;21.20;99.90
12512;DHT22;6321;53.798;10.382;2022-07-25T05:28:03;21.30;99.90
12512;DHT22;6321;53.798;10.382;2022-07-25T05:30:28;21.50;99.90
12512;DHT22;6321;53.798;10.382;2022-07-25T05:32:54;21.40;99.90
12512;DHT22;6321;53.798;10.382;2022-07-25T05:35:19;21.50;99.90
12512;DHT22;6321;53.798;10.382;2022-07-25T05:37:45;21.60;99.90
12512;DHT22;6321;53.798;10.382;2022-07-25T05:40:11;21.90;99.90
12512;DHT22;6321;53.798;10.382;2022-07-25T05:42:37;22.00;99.90
12512;DHT22;6321;53.798;10.382;2022-07-25T05:45:03;22.30;99.90
12512;DHT22;6321;53.798;10.382;2022-07-25T05:47:28;22.60;99.90
12512;DHT22;6321;53.798;10.382;2022-07-25T05:49:54;22.70;99.90
12512;DHT22;6321;53.798;10.382;2022-07-25T05:52:20;22.90;99.90
12512;DHT22;6321;53.798;10.382;2022-07-25T05:54:45;23.10;99.90
12512;DHT22;6321;53.798;10.382;2022-07-25T05:57:11;23.10;99.90
12512;DHT22;6321;53.798;10.382;2022-07-25T05:59:36;23.20;99.90
12512;DHT22;6321;53.798;10.382;2022-07-25T06:02:02;23.30;99.90
12512;DHT22;6321;53.798;10.382;2022-07-25T06:04:27;23.30;99.90
12512;DHT22;6321;53.798;10.382;2022-07-25T06:06:53;23.50;99.90
12512;DHT22;6321;53.798;10.382;2022-07-25T06:09:20;23.40;99.90
12512;DHT22;6321;53.798;10.382;2022-07-25T06:11:46;23.60;99.90
12512;DHT22;6321;53.798;10.382;2022-07-25T06:14:12;23.60;99.90
12512;DHT22;6321;53.798;10.382;2022-07-25T06:16:37;23.80;99.90
12512;DHT22;6321;53.798;10.382;2022-07-25T06:19:03;23.70;99.90
12512;DHT22;6321;53.798;10.382;2022-07-25T06:21:29;23.70;99.90
12512;DHT22;6321;53.798;10.382;2022-07-25T06:23:54;24.00;99.90
12512;DHT22;6321;53.798;10.382;2022-07-25T06:26:20;24.10;99.90
12512;DHT22;6321;53.798;10.382;2022-07-25T06:28:46;24.30;99.90
12512;DHT22;6321;53.798;10.382;2022-07-25T06:31:11;24.40;99.90
12512;DHT22;6321;53.798;10.382;2022-07-25T06:33:37;24.60;99.90
12512;DHT22;6321;53.798;10.382;2022-07-25T06:36:04;24.80;99.90
12512;DHT22;6321;53.798;10.382;2022-07-25T06:38:30;24.90;99.90
12512;DHT22;6321;53.798;10.382;2022-07-25T06:40:55;24.90;99.90
12512;DHT22;6321;53.798;10.382;2022-07-25T06:43:21;25.00;99.90
12512;DHT22;6321;53.798;10.382;2022-07-25T06:45:46;24.90;99.90
12512;DHT22;6321;53.798;10.382;2022-07-25T06:48:13;25.20;99.90
12512;DHT22;6321;53.798;10.382;2022-07-25T06:50:40;25.00;99.90
12512;DHT22;6321;53.798;10.382;2022-07-25T06:53:05;25.10;99.90
12512;DHT22;6321;53.798;10.382;2022-07-25T06:55:31;25.10;99.90
12512;DHT22;6321;53.798;10.382;2022-07-25T06:57:56;25.40;99.90
12512;DHT22;6321;53.798;10.382;2022-07-25T07:00:22;25.50;99.90
12512;DHT22;6321;53.798;10.382;2022-07-25T07:02:51;25.30;99.90
12512;DHT22;6321;53.798;10.382;2022-07-25T07:05:17;25.50;99.90
12512;DHT22;6321;53.798;10.382;2022-07-25T07:07:43;25.60;99.90
12512;DHT22;6321;53.798;10.382;2022-07-25T07:10:09;25.70;99.90
12512;DHT22;6321;53.798;10.382;2022-07-25T07:12:34;25.80;99.90
12512;DHT22;6321;53.798;10.382;2022-07-25T07:15:00;25.80;99.90
12512;DHT22;6321;53.798;10.382;2022-07-25T07:17:25;26.00;99.90
12512;DHT22;6321;53.798;10.382;2022-07-25T07:19:51;26.30;99.90
12512;DHT22;6321;53.798;10.382;2022-07-25T07:22:16;26.20;99.90
12512;DHT22;6321;53.798;10.382;2022-07-25T07:24:42;26.10;99.90
12512;DHT22;6321;53.798;10.382;2022-07-25T07:27:07;26.00;99.90
12512;DHT22;6321;53.798;10.382;2022-07-25T07:29:33;26.20;99.90
12512;DHT22;6321;53.798;10.382;2022-07-25T07:31:58;26.30;99.90
12512;DHT22;6321;53.798;10.382;2022-07-25T07:34:24;26.40;99.90
12512;DHT22;6321;53.798;10.382;2022-07-25T07:36:49;26.70;99.90
12512;DHT22;6321;53.798;10.382;2022-07-25T07:39:16;27.20;99.90
12512;DHT22;6321;53.798;10.382;2022-07-25T07:41:41;26.90;99.90
12512;DHT22;6321;53.798;10.382;2022-07-25T07:44:07;27.00;99.90
12512;DHT22;6321;53.798;10.382;2022-07-25T07:46:32;27.10;99.90
12512;DHT22;6321;53.798;10.382;2022-07-25T07:48:58;27.20;99.90
12512;DHT22;6321;53.798;10.382;2022-07-25T07:51:23;27.40;99.90
12512;DHT22;6321;53.798;10.382;2022-07-25T07:53:49;27.70;99.90
12512;DHT22;6321;53.798;10.382;2022-07-25T07:56:33;27.70;99.90
12512;DHT22;6321;53.798;10.382;2022-07-25T07:58:58;27.80;99.90
12512;DHT22;6321;53.798;10.382;2022-07-25T08:01:24;28.60;99.90
12512;DHT22;6321;53.798;10.382;2022-07-25T08:03:51;28.00;99.90
12512;DHT22;6321;53.798;10.382;2022-07-25T08:06:16;28.20;99.90
12512;DHT22;6321;53.798;10.382;2022-07-25T08:08:42;28.50;99.90
12512;DHT22;6321;53.798;10.382;2022-07-25T08:11:08;28.70;99.90
12512;DHT22;6321;53.798;10.382;2022-07-25T08:13:33;28.80;99.90
12512;DHT22;6321;53.798;10.382;2022-07-25T08:16:00;29.00;99.90
12512;DHT22;6321;53.798;10.382;2022-07-25T08:18:26;29.00;99.90
12512;DHT22;6321;53.798;10.382;2022-07-25T08:20:54;29.00;99.90
12512;DHT22;6321;53.798;10.382;2022-07-25T08:23:20;28.70;99.90
12512;DHT22;6321;53.798;10.382;2022-07-25T08:25:47;29.20;99.90
12512;DHT22;6321;53.798;10.382;2022-07-25T08:28:13;29.20;99.90
12512;DHT22;6321;53.798;10.382;2022-07-25T08:30:39;29.40;99.90
12512;DHT22;6321;53.798;10.382;2022-07-25T08:33:07;29.40;99.90
12512;DHT22;6321;53.798;10.382;2022-07-25T08:35:35;29.40;99.90
12512;DHT22;6321;53.798;10.382;2022-07-25T08:38:01;29.40;99.90
12512;DHT22;6321;53.798;10.382;2022-07-25T08:40:28;29.60;99.90
12512;DHT22;6321;53.798;10.382;2022-07-25T08:42:54;29.80;99.90
12512;DHT22;6321;53.798;10.382;2022-07-25T08:45:21;29.90;99.90
12512;DHT22;6321;53.798;10.382;2022-07-25T08:47:48;30.20;99.90
12512;DHT22;6321;53.798;10.382;2022-07-25T08:50:17;30.60;99.90
12512;DHT22;6321;53.798;10.382;2022-07-25T08:52:47;30.30;99.90
12512;DHT22;6321;53.798;10.382;2022-07-25T08:55:15;30.30;99.90
12512;DHT22;6321;53.798;10.382;2022-07-25T08:57:41;30.60;99.90
12512;DHT22;6321;53.798;10.382;2022-07-25T09:00:13;31.00;99.90
12512;DHT22;6321;53.798;10.382;2022-07-25T09:02:40;31.00;99.90
12512;DHT22;6321;53.798;10.382;2022-07-25T09:05:05;30.90;99.90
12512;DHT22;6321;53.798;10.382;2022-07-25T09:07:38;31.00;99.90
12512;DHT22;6321;53.798;10.382;2022-07-25T09:10:19;31.00;99.90
12512;DHT22;6321;53.798;10.382;2022-07-25T09:12:57;31.00;99.90
12512;DHT22;6321;53.798;10.382;2022-07-25T09:15:27;30.80;99.90
12512;DHT22;6321;53.798;10.382;2022-07-25T09:17:54;31.00;99.90
12512;DHT22;6321;53.798;10.382;2022-07-25T09:20:21;31.30;99.90
12512;DHT22;6321;53.798;10.382;2022-07-25T09:22:47;31.70;99.90
12512;DHT22;6321;53.798;10.382;2022-07-25T09:25:24;31.70;99.90
12512;DHT22;6321;53.798;10.382;2022-07-25T09:27:50;31.50;99.90
12512;DHT22;6321;53.798;10.382;2022-07-25T09:30:16;31.50;99.90
12512;DHT22;6321;53.798;10.382;2022-07-25T09:32:41;31.40;99.90
12512;DHT22;6321;53.798;10.382;2022-07-25T09:35:07;31.40;99.90
12512;DHT22;6321;53.798;10.382;2022-07-25T09:37:33;31.60;99.90
12512;DHT22;6321;53.798;10.382;2022-07-25T09:39:58;31.50;99.90
12512;DHT22;6321;53.798;10.382;2022-07-25T09:42:31;31.60;99.90
12512;DHT22;6321;53.798;10.382;2022-07-25T09:47:28;31.70;99.90
12512;DHT22;6321;53.798;10.382;2022-07-25T09:49:55;31.90;99.90
12512;DHT22;6321;53.798;10.382;2022-07-25T09:52:21;31.90;99.90
12512;DHT22;6321;53.798;10.382;2022-07-25T09:54:46;32.10;99.90
12512;DHT22;6321;53.798;10.382;2022-07-25T09:57:12;31.90;99.90
12512;DHT22;6321;53.798;10.382;2022-07-25T09:59:37;32.10;99.90
12512;DHT22;6321;53.798;10.382;2022-07-25T10:07:25;32.90;99.90
12512;DHT22;6321;53.798;10.382;2022-07-25T10:09:54;32.90;99.90
12512;DHT22;6321;53.798;10.382;2022-07-25T10:12:21;32.90;99.90
12512;DHT22;6321;53.798;10.382;2022-07-25T10:15:08;32.70;99.90
12512;DHT22;6321;53.798;10.382;2022-07-25T10:17:35;32.50;99.90
12512;DHT22;6321;53.798;10.382;2022-07-25T10:20:01;32.30;99.90
12512;DHT22;6321;53.798;10.382;2022-07-25T10:22:41;32.20;99.90
12512;DHT22;6321;53.798;10.382;2022-07-25T10:25:18;32.20;99.90
12512;DHT22;6321;53.798;10.382;2022-07-25T10:27:49;32.00;99.90
12512;DHT22;6321;53.798;10.382;2022-07-25T10:30:25;32.40;99.90
12512;DHT22;6321;53.798;10.382;2022-07-25T10:32:58;32.20;99.90
12512;DHT22;6321;53.798;10.382;2022-07-25T10:35:25;32.30;99.90
12512;DHT22;6321;53.798;10.382;2022-07-25T10:37:53;32.40;99.90
12512;DHT22;6321;53.798;10.382;2022-07-25T10:40:42;32.40;99.90
12512;DHT22;6321;53.798;10.382;2022-07-25T10:43:12;32.50;99.90
12512;DHT22;6321;53.798;10.382;2022-07-25T10:45:47;32.40;99.90
12512;DHT22;6321;53.798;10.382;2022-07-25T10:50:51;32.20;99.90
12512;DHT22;6321;53.798;10.382;2022-07-25T10:55:57;32.10;99.90
12512;DHT22;6321;53.798;10.382;2022-07-25T10:58:23;32.40;99.90
12512;DHT22;6321;53.798;10.382;2022-07-25T11:00:48;32.30;99.90
12512;DHT22;6321;53.798;10.382;2022-07-25T11:03:15;32.50;99.90
12512;DHT22;6321;53.798;10.382;2022-07-25T11:05:47;32.50;99.90
12512;DHT22;6321;53.798;10.382;2022-07-25T11:08:12;32.40;99.90
12512;DHT22;6321;53.798;10.382;2022-07-25T11:10:38;32.30;99.90
12512;DHT22;6321;53.798;10.382;2022-07-25T11:13:03;32.30;99.90
12512;DHT22;6321;53.798;10.382;2022-07-25T11:15:30;32.30;99.90
12512;DHT22;6321;53.798;10.382;2022-07-25T11:17:56;32.70;99.90
12512;DHT22;6321;53.798;10.382;2022-07-25T11:20:22;32.80;99.90
12512;DHT22;6321;53.798;10.382;2022-07-25T11:22:54;32.60;99.90
12512;DHT22;6321;53.798;10.382;2022-07-25T11:25:21;32.70;99.90
12512;DHT22;6321;53.798;10.382;2022-07-25T11:28:00;32.70;99.90
12512;DHT22;6321;53.798;10.382;2022-07-25T11:30:26;32.60;99.90
12512;DHT22;6321;53.798;10.382;2022-07-25T11:32:56;32.60;99.90
12512;DHT22;6321;53.798;10.382;2022-07-25T11:35:30;32.80;99.90
12512;DHT22;6321;53.798;10.382;2022-07-25T11:37:56;32.70;99.90
12512;DHT22;6321;53.798;10.382;2022-07-25T11:40:23;32.40;99.90
12512;DHT22;6321;53.798;10.382;2022-07-25T11:42:56;32.40;99.90
12512;DHT22;6321;53.798;10.382;2022-07-25T11:45:31;32.40;99.90
12512;DHT22;6321;53.798;10.382;2022-07-25T11:48:05;32.40;99.90
12512;DHT22;6321;53.798;10.382;2022-07-25T11:50:35;32.40;99.90
12512;DHT22;6321;53.798;10.382;2022-07-25T11:53:03;33.00;99.90
12512;DHT22;6321;53.798;10.382;2022-07-25T11:55:31;32.40;99.90
12512;DHT22;6321;53.798;10.382;2022-07-25T11:58:00;32.30;99.90
12512;DHT22;6321;53.798;10.382;2022-07-25T12:00:25;32.30;99.90
12512;DHT22;6321;53.798;10.382;2022-07-25T12:02:51;32.20;99.90
12512;DHT22;6321;53.798;10.382;2022-07-25T12:05:19;32.30;99.90
12512;DHT22;6321;53.798;10.382;2022-07-25T12:07:53;32.40;99.90
12512;DHT22;6321;53.798;10.382;2022-07-25T12:10:31;32.20;99.90
12512;DHT22;6321;53.798;10.382;2022-07-25T12:12:57;32.20;99.90
12512;DHT22;6321;53.798;10.382;2022-07-25T12:15:31;32.50;99.90
12512;DHT22;6321;53.798;10.382;2022-07-25T12:17:57;31.90;99.90
12512;DHT22;6321;53.798;10.382;2022-07-25T12:20:25;32.00;99.90
12512;DHT22;6321;53.798;10.382;2022-07-25T12:22:57;32.10;99.90
12512;DHT22;6321;53.798;10.382;2022-07-25T12:25:23;32.50;99.90
12512;DHT22;6321;53.798;10.382;2022-07-25T12:27:49;32.60;99.90
12512;DHT22;6321;53.798;10.382;2022-07-25T12:30:15;33.00;99.90
12512;DHT22;6321;53.798;10.382;2022-07-25T12:32:41;33.30;99.90
12512;DHT22;6321;53.798;10.382;2022-07-25T12:35:09;33.30;99.90
12512;DHT22;6321;53.798;10.382;2022-07-25T12:37:35;33.30;99.90
12512;DHT22;6321;53.798;10.382;2022-07-25T12:40:02;33.30;99.90
12512;DHT22;6321;53.798;10.382;2022-07-25T12:42:27;33.40;99.90
12512;DHT22;6321;53.798;10.382;2022-07-25T12:44:54;33.50;99.90
12512;DHT22;6321;53.798;10.382;2022-07-25T12:47:21;33.70;99.90
12512;DHT22;6321;53.798;10.382;2022-07-25T12:49:46;33.80;99.90
12512;DHT22;6321;53.798;10.382;2022-07-25T12:52:12;33.80;99.90
12512;DHT22;6321;53.798;10.382;2022-07-25T12:54:38;33.80;99.90
12512;DHT22;6321;53.798;10.382;2022-07-25T12:57:04;33.60;99.90
12512;DHT22;6321;53.798;10.382;2022-07-25T12:59:29;33.60;99.90
12512;DHT22;6321;53.798;10.382;2022-07-25T13:01:55;33.40;99.90
12512;DHT22;6321;53.798;10.382;2022-07-25T13:04:20;33.30;99.90
12512;DHT22;6321;53.798;10.382;2022-07-25T13:06:46;33.50;99.90
12512;DHT22;6321;53.798;10.382;2022-07-25T13:09:11;33.50;99.90
12512;DHT22;6321;53.798;10.382;2022-07-25T13:11:37;33.50;99.90
12512;DHT22;6321;53.798;10.382;2022-07-25T13:14:03;33.40;99.90
12512;DHT22;6321;53.798;10.382;2022-07-25T13:16:28;33.40;99.90
12512;DHT22;6321;53.798;10.382;2022-07-25T13:18:54;33.00;99.90
12512;DHT22;6321;53.798;10.382;2022-07-25T13:21:20;32.80;99.90
12512;DHT22;6321;53.798;10.382;2022-07-25T13:23:45;32.60;99.90
12512;DHT22;6321;53.798;10.382;2022-07-25T13:26:11;32.50;99.90
12512;DHT22;6321;53.798;10.382;2022-07-25T13:28:37;32.10;99.90
12512;DHT22;6321;53.798;10.382;2022-07-25T13:31:03;32.10;99.90
12512;DHT22;6321;53.798;10.382;2022-07-25T13:33:31;32.00;99.90
12512;DHT22;6321;53.798;10.382;2022-07-25T13:35:57;32.00;99.90
12512;DHT22;6321;53.798;10.382;2022-07-25T13:38:22;32.40;99.90
12512;DHT22;6321;53.798;10.382;2022-07-25T13:40:48;32.00;99.90
12512;DHT22;6321;53.798;10.382;2022-07-25T13:43:13;32.00;99.90
12512;DHT22;6321;53.798;10.382;2022-07-25T13:45:40;31.90;99.90
12512;DHT22;6321;53.798;10.382;2022-07-25T13:48:06;32.00;99.90
12512;DHT22;6321;53.798;10.382;2022-07-25T13:50:33;32.10;99.90
12512;DHT22;6321;53.798;10.382;2022-07-25T13:52:59;32.00;99.90
12512;DHT22;6321;53.798;10.382;2022-07-25T13:55:26;31.90;99.90
12512;DHT22;6321;53.798;10.382;2022-07-25T13:57:51;31.80;99.90
12512;DHT22;6321;53.798;10.382;2022-07-25T14:00:17;31.70;99.90
12512;DHT22;6321;53.798;10.382;2022-07-25T14:02:43;31.90;99.90
12512;DHT22;6321;53.798;10.382;2022-07-25T14:05:09;32.00;99.90
12512;DHT22;6321;53.798;10.382;2022-07-25T14:07:35;32.10;99.90
12512;DHT22;6321;53.798;10.382;2022-07-25T14:10:01;32.20;99.90
12512;DHT22;6321;53.798;10.382;2022-07-25T14:12:27;32.40;99.90
12512;DHT22;6321;53.798;10.382;2022-07-25T14:14:52;32.60;99.90
12512;DHT22;6321;53.798;10.382;2022-07-25T14:17:18;32.60;99.90
12512;DHT22;6321;53.798;10.382;2022-07-25T14:19:43;32.60;99.90
12512;DHT22;6321;53.798;10.382;2022-07-25T14:22:09;32.60;99.90
12512;DHT22;6321;53.798;10.382;2022-07-25T14:24:34;32.40;99.90
12512;DHT22;6321;53.798;10.382;2022-07-25T14:27:00;32.10;99.90
12512;DHT22;6321;53.798;10.382;2022-07-25T14:29:26;32.00;99.90
12512;DHT22;6321;53.798;10.382;2022-07-25T14:31:52;31.90;99.90
12512;DHT22;6321;53.798;10.382;2022-07-25T14:34:18;31.70;99.90
12512;DHT22;6321;53.798;10.382;2022-07-25T14:36:43;31.80;99.90
12512;DHT22;6321;53.798;10.382;2022-07-25T14:39:12;31.30;99.90
12512;DHT22;6321;53.798;10.382;2022-07-25T14:41:37;31.00;99.90
12512;DHT22;6321;53.798;10.382;2022-07-25T14:44:03;30.80;99.90
12512;DHT22;6321;53.798;10.382;2022-07-25T14:46:29;30.50;99.90
12512;DHT22;6321;53.798;10.382;2022-07-25T14:48:54;30.10;99.90
12512;DHT22;6321;53.798;10.382;2022-07-25T14:51:20;29.90;99.90
12512;DHT22;6321;53.798;10.382;2022-07-25T14:53:46;29.30;99.90
12512;DHT22;6321;53.798;10.382;2022-07-25T14:56:11;28.20;99.90
12512;DHT22;6321;53.798;10.382;2022-07-25T14:58:38;27.40;99.90
12512;DHT22;6321;53.798;10.382;2022-07-25T15:01:04;26.60;99.90
12512;DHT22;6321;53.798;10.382;2022-07-25T15:03:30;26.30;99.90
12512;DHT22;6321;53.798;10.382;2022-07-25T15:05:55;25.60;99.90
12512;DHT22;6321;53.798;10.382;2022-07-25T15:08:21;25.10;99.90
12512;DHT22;6321;53.798;10.382;2022-07-25T15:10:47;24.80;99.90
12512;DHT22;6321;53.798;10.382;2022-07-25T15:13:12;24.30;99.90
12512;DHT22;6321;53.798;10.382;2022-07-25T15:15:38;24.00;99.90
12512;DHT22;6321;53.798;10.382;2022-07-25T15:18:03;23.90;99.90
12512;DHT22;6321;53.798;10.382;2022-07-25T15:20:29;23.80;99.90
12512;DHT22;6321;53.798;10.382;2022-07-25T15:22:55;23.00;99.90
12512;DHT22;6321;53.798;10.382;2022-07-25T15:25:20;23.90;99.90
12512;DHT22;6321;53.798;10.382;2022-07-25T15:27:46;23.50;99.90
12512;DHT22;6321;53.798;10.382;2022-07-25T15:30:11;23.30;99.90
12512;DHT22;6321;53.798;10.382;2022-07-25T15:32:37;23.20;99.90
12512;DHT22;6321;53.798;10.382;2022-07-25T15:35:04;23.10;99.90
12512;DHT22;6321;53.798;10.382;2022-07-25T15:37:30;23.00;99.90
12512;DHT22;6321;53.798;10.382;2022-07-25T15:39:56;22.70;99.90